CENTRUM - DŁUGA TRASA
Szuter Master - Centrum
Organizator : Fundacja ULTRA
Data : 2022-04-23
Miejsce : Skierniewice
Dystans : 167 km
Zgłoszonych : 119
Wystartowało : 103
Nie ukończyło : 0
Ukończyło : 103
Na trasie : 0
Pełne wyniki :
Uproszczone :
Klasyfikacje w punktach pomiarowych: Start | Meta
Klasyfikacje wg kategorii: Wszyscy | K Open | M Open
Klasyfikacja wg czasu brutto. Wyniki nieoficjalne !!!
MscZawodnikNumerKlubMiejscowośćKrajKategoriaMkatK/MCzas startuCzas
netto
167km
Czas
brutto
167km
Różn.Tempo
min/km
Tempo
km/h
       
1KLIMASZEWSKI Łukasz 53MITUTOYO AZS WRATISLAVIA WROCŁAWWROCŁAWM Open1M 100:00:0005:23:35.0005:23:35.00 1:5631,0
2BURZYCH Przemysław 15BURZA NA ROWERZE TEAMPOLICEM Open2M 200:00:0005:23:37.0005:23:37.00+00:00:021:5631,0
3FIJAS Mateusz 26CYPRESS-CTWIELICZKAM Open3M 300:00:0005:32:08.0005:32:08.00+00:08:331:5930,2
4MALAK Paweł 71SPORTANO.PLZIELONA GÓRAM Open4M 400:00:0005:33:04.0005:33:04.00+00:09:291:5930,1
5GOMOŃSKI Eryk 39DT4YOU TEAMOBORNIKIM Open5M 500:00:0005:36:16.0005:36:16.00+00:12:412:0029,8
6GRABOWSKI Grzegorz 40ŚWIROVERLODZM Open6M 600:00:0005:36:19.0005:36:19.00+00:12:442:0029,8
7MATRAS Wojciech 73FARTSTRONG GRAVEL TEAMPUŁAWYM Open7M 700:00:0005:36:34.0005:36:34.00+00:12:592:0029,8
8KOTULIŃSKI Bartosz 55BURZA NA ROWERZE TEAMŚWINOUJŚCIEM Open8M 800:00:0005:36:35.0005:36:35.00+00:13:002:0029,8
9BIAŁEK Robert 10BURZA NA ROWERZE TEAMSZCZECINM Open9M 900:00:0005:36:40.0005:36:40.00+00:13:052:0029,8
10GARBAREK Adam 33WRZEŚNIAM Open10M 1000:00:0005:36:47.0005:36:47.00+00:13:122:0129,8
11OKŁA Jakub 83WARSZAWAM Open11M 1100:00:0005:37:41.0005:37:41.00+00:14:062:0129,7
12STANKIEWICZ Gracjan 102DT4YOU TEAMOBORNIKIM Open12M 1200:00:0005:47:35.0005:47:35.00+00:24:002:0428,8
13SZALINSKI Michal 108NA OSI ROAD TEAMWARSZAWAM Open13M 1300:00:0005:50:13.0005:50:13.00+00:26:382:0528,6
14WALICKI Filip 111SYRENKA CXŁOMIANKIM Open14M 1400:00:0005:50:17.0005:50:17.00+00:26:422:0528,6
15GROSICKI Szymon 41FART STRONGWARSZAWAM Open15M 1500:00:0006:02:23.0006:02:23.00+00:38:482:1027,7
16NOSOWSKI Jacek 82TRI.REGRESSWARSZAWAM Open16M 1600:00:0006:02:38.0006:02:38.00+00:39:032:1027,6
17SIENIUĆ Kuba 98PIASECZNOM Open17M 1700:00:0006:03:01.0006:03:01.00+00:39:262:1027,6
18KOWALEWICZ Jarosław 56SZOSZA SZOSOWE SZALEŃSTWOUHOWOM Open18M 1800:00:0006:03:03.0006:03:03.00+00:39:282:1027,6
19KUBIAK Jakub 61AKGŁÓDŹM Open19M 1900:00:0006:03:06.0006:03:06.00+00:39:312:1027,6
20SKOREK Jan 100WARSZAWAM Open20M 2000:00:0006:03:19.0006:03:19.00+00:39:442:1027,6
21KUBICA Marcin 62SKRZYSZÓWM Open21M 2100:00:0006:03:56.0006:03:56.00+00:40:212:1027,5
22KLATECKI Adam 52J 3,16PRUSZCZM Open22M 2200:00:0006:04:06.0006:04:06.00+00:40:312:1027,5
23SĘDKOWSKI Łukasz 97SENDEXTRZEBNICAM Open23M 2300:00:0006:07:06.0006:07:06.00+00:43:312:1127,3
24ROTKIEWICZ Michał 92OLSZTYNM Open24M 2400:00:0006:07:42.0006:07:42.00+00:44:072:1227,3
25PRZYBYLAK Maciej 89PRZEZMIEROWOM Open25M 2500:00:0006:13:22.0006:13:22.00+00:49:472:1426,8
26NOGALSKI Wojciech 81LIBERTÓWM Open26M 2600:00:0006:14:58.0006:14:58.00+00:51:232:1426,7
27MICHAŁEK Krzysztof 75CIECHANÓWM Open27M 2700:00:0006:18:36.0006:18:36.00+00:55:012:1626,5
28PAWNUK Marek 84TARNOWSKIE GÓRYM Open28M 2800:00:0006:18:39.0006:18:39.00+00:55:042:1626,5
29BORS Michał 13RAWA MAZOWIECKAM Open29M 2900:00:0006:20:52.0006:20:52.00+00:57:172:1626,3
30DĄBROWSKI Marcin 23WARSZAWAM Open30M 3000:00:0006:27:25.0006:27:25.00+01:03:502:1925,9
31DALLEMURA Mariusz 20BIAŁYSTOKM Open31M 3100:00:0006:38:35.0006:38:35.00+01:15:002:2325,1
32DĄBROWICZ Katarzyna 22MŚ CYCLING&DIETETYKAKOMORNIKIK Open1K 100:00:0006:45:39.0006:45:39.00+01:22:042:2524,7
33SZAJNA Piotr 107KRAKÓWM Open32M 3200:00:0006:45:42.0006:45:42.00+01:22:072:2524,7
34RYCHLEWSKI Bartosz 93DELOITTE ADVENTURE TEAMOLSZTYNM Open33M 3300:00:0006:52:59.0006:52:59.00+01:29:242:2824,3
35JURANEK Dorota 48MAMBA ON BIKEKATOWICEK Open2K 200:00:0006:53:01.0006:53:01.00+01:29:262:2824,3
36NIEBELSKA Izabela 79ŁÓDŹK Open3K 300:00:0006:53:24.0006:53:24.00+01:29:492:2824,2
37NIEBELSKI Piotr 80ŁÓDŹM Open34M 3400:00:0006:53:26.0006:53:26.00+01:29:512:2824,2
38SIWEK Stefan 99EDENROGÓWM Open35M 3500:00:0006:53:49.0006:53:49.00+01:30:142:2824,2
39KUŚMIREK Mateusz 65ŁÓDŹM Open36M 3600:00:0006:54:50.0006:54:50.00+01:31:152:2924,2
40DYNOWSKI Przemysław 25ZGIERZM Open37M 3700:00:0006:54:53.0006:54:53.00+01:31:182:2924,2
41BARYŁA Pawel 8BIAŁAM Open38M 3800:00:0006:56:35.0006:56:35.00+01:33:002:2924,1
42KOPCZYNSKI Filip 54WIELUŃM Open39M 3900:00:0006:56:37.0006:56:37.00+01:33:022:2924,1
43ADAMEK Mike 2WARSZAWAM Open40M 4000:00:0007:01:28.0007:01:28.00+01:37:532:3123,8
44IGNACZAK Damian 43M-TEAM WIELKOPOLSKAGOLINAM Open41M 4100:00:0007:01:31.0007:01:31.00+01:37:562:3123,8
45KLIMCZAK Paweł 119WARSZAWAM Open42M 4200:00:0007:02:19.0007:02:19.00+01:38:442:3123,7
46MARCINKIEWICZ Grzegorz 72NASZ BIKE TEAMWOŁOMINM Open43M 4300:00:0007:03:31.0007:03:31.00+01:39:562:3223,7
47STYŚ Jakub 106ZIELONKAM Open44M 4400:00:0007:05:01.0007:05:01.00+01:41:262:3223,6
48KNIAŹ Michał 117WARSZAWAM Open45M 4500:00:0007:05:04.0007:05:04.00+01:41:292:3223,6
49AUGUSTYŃSKI Szymon 6ŁÓDŹM Open46M 4600:00:0007:06:10.0007:06:10.00+01:42:352:3323,5
50KALETA Marcin 49ŁÓDŹM Open47M 4700:00:0007:06:13.0007:06:13.00+01:42:382:3323,5
51LIBISZEWSKI Emilian 66HUTCHINSON POLANDŁÓDŹM Open48M 4800:00:0007:06:25.0007:06:25.00+01:42:502:3323,5
52PUSTELNIK Pawel 90AKG ŁÓDŹLODZM Open49M 4900:00:0007:10:13.0007:10:13.00+01:46:382:3423,3
53GANCARCZYK Grzegorz 32KOŁOMILATAWIELISZEWM Open50M 5000:00:0007:14:54.0007:14:54.00+01:51:192:3623,0
54MODZELEWSKI Miłosz 76PLAYWARSZAWAM Open51M 5100:00:0007:14:56.0007:14:56.00+01:51:212:3623,0
55GAJKOWSKI Marcin 29CHOTOMÓWM Open52M 5200:00:0007:17:18.0007:17:18.00+01:53:432:3722,9
56GADOMSKI Rafał 28SUPRAWARSZAWAM Open53M 5300:00:0007:20:03.0007:20:03.00+01:56:282:3822,8
57GOLONKA Magda 37MG LEGAL KANCELARIA RADCY PRAWNEGO MAGDALENA GOLONKAKRAKOWK Open4K 400:00:0007:23:18.0007:23:18.00+01:59:432:3922,6
58ŁAGODZIŃSKI Paweł 68RAMĘ NA RAMIĘWARSZAWAM Open54M 5400:00:0007:26:13.0007:26:13.00+02:02:382:4022,5
59ZIELIŃSKI Dariusz 116RAMĘ NA RAMIĘWARSZAWAM Open55M 5500:00:0007:26:16.0007:26:16.00+02:02:412:4022,5
60IGNACZAK Waldemar 44SPŁAWIE 20M Open56M 5600:00:0007:26:25.0007:26:25.00+02:02:502:4022,4
61GAWRYSIAK Janusz 36ZGIERZM Open57M 5700:00:0007:26:39.0007:26:39.00+02:03:042:4022,4
62DASZEWSKI Michał 21#BACZŁOMIANKIM Open58M 5800:00:0007:28:49.0007:28:49.00+02:05:142:4122,3
63CHMIELEWSKI Jakub 17GENESIS BLUEBIRDBYDGOSZCZM Open59M 5900:00:0007:29:38.0007:29:38.00+02:06:032:4122,3
64GOŁOŚ Marcin 38PRUSZKÓWM Open60M 6000:00:0007:29:54.0007:29:54.00+02:06:192:4122,3
65CICHAWA Tomasz 18CUDOWNE DZIECI DWÓCH PEDAŁÓWŁÓDŹM Open61M 6100:00:0007:29:56.0007:29:56.00+02:06:212:4122,3
66GAWORSKI Dawid 35SULEJÓWEKM Open62M 6200:00:0007:32:22.0007:32:22.00+02:08:472:4222,2
67KUROPATWA Sylwia 63PABIANICEK Open5K 500:00:0007:32:26.0007:32:26.00+02:08:512:4222,1
68MOMOT Tomasz 77#BACZŁOMIANKIM Open63M 6300:00:0007:33:18.0007:33:18.00+02:09:432:4222,1
69SAFIAŃSKI Seweryn 95WARSZAWAM Open64M 6400:00:0007:35:19.0007:35:19.00+02:11:442:4322,0
70KRZEKOTOWSKA-GŁOWACKA Agnieszka 59BIKE EXPO NARODOWY TEAMKONSTANCIN-JEZIORNAK Open6K 600:00:0007:35:34.0007:35:34.00+02:11:592:4322,0
71BINKOWSKI Jaroslaw 12WARSZAWAM Open65M 6500:00:0007:36:54.0007:36:54.00+02:13:192:4421,9
72BINKIEWICZ Agnieszka 11DZIEWCZYNA Z PLECAKIEMRAWA MAZOWIECKAK Open7K 700:00:0007:38:26.0007:38:26.00+02:14:512:4421,9
73GAJOWNIK Błażej 30MIŃSK MAZOWIECKIM Open66M 6600:00:0007:38:55.0007:38:55.00+02:15:202:4421,8
74AŁASA Rafał 3WARSZAWAM Open67M 6700:00:0007:40:59.0007:40:59.00+02:17:242:4521,7
75STRYJECKA Izabela 105BABSKA KORBAWARSZAWAK Open8K 800:00:0007:41:22.0007:41:22.00+02:17:472:4521,7
76BUJAK Piotr 14KRAKÓWM Open68M 6800:00:0007:51:06.0007:51:06.00+02:27:312:4921,3
77PIETRZAK Tomasz 85PRZYPKIM Open69M 6900:00:0007:54:34.0007:54:34.00+02:30:592:5021,1
78MCCOY Eoin 74KRKXCCKRAKOWM Open70M 7000:00:0007:54:37.0007:54:37.00+02:31:022:5021,1
79LIPKA Patryk 67TORUŃM Open71M 7100:00:0007:54:44.0007:54:44.00+02:31:092:5021,1
80ANTOSZEWSKI Bartosz 5MOYA TEAMWARSZAWAM Open72M 7200:00:0007:54:53.0007:54:53.00+02:31:182:5021,1
81SKRZECZ Marek 118Open Bike TeamDAWIDYM Open73M 7300:00:0007:55:20.0007:55:20.00+02:31:452:5021,1
82KURPIŃSKI Grzegorz 64LUBINM Open74M 7400:00:0007:56:25.0007:56:25.00+02:32:502:5121,0
83GAŁUSZEK Michał 31EPOWROCŁAWM Open75M 7500:00:0008:04:32.0008:04:32.00+02:40:572:5420,7
84KRZYKAWSKA-GAŁUSZEK Anna 60EPOWROCLAWK Open9K 900:00:0008:04:34.0008:04:34.00+02:40:592:5420,7
85ROGOWIECKI Dominik 91GRODZISK MAZOWIECKIM Open76M 7600:00:0008:07:41.0008:07:41.00+02:44:062:5520,5
86JAGIEŁŁO Jan 45WROCŁAWM Open77M 7700:00:0008:13:05.0008:13:05.00+02:49:302:5720,3
87STANKOWSKI Martel 103MARTELKWIRYNÓWM Open78M 7800:00:0008:14:29.0008:14:29.00+02:50:542:5720,3
88BESSER Paweł 9WARSZAWAM Open79M 7900:00:0008:20:30.0008:20:30.00+02:56:552:5920,0
89DRELA Rafał 24WROCŁAWM Open80M 8000:00:0008:20:35.0008:20:35.00+02:57:002:5920,0
90ANDRZEJEWSKI Arkadiusz 4ŻORYM Open81M 8100:00:0008:21:03.0008:21:03.00+02:57:283:0020,0
91FRANCUZ Piotr 27ŁÓDŹM Open82M 8200:00:0008:21:07.0008:21:07.00+02:57:323:0020,0
92JEZNACH Daniel 47J!R RADZYMINRADZYMINM Open83M 8300:00:0008:21:44.0008:21:44.00+02:58:093:0020,0
93STRUMIŁŁO Jarek 104ŁÓDŹM Open84M 8400:00:0008:22:37.0008:22:37.00+02:59:023:0019,9
94PILECKI Ernest 86PIŁAM Open85M 8500:00:0008:31:44.0008:31:44.00+03:08:093:0319,6
95POPIOŁEK Karol 88OPOLEM Open86M 8600:00:0008:33:13.0008:33:13.00+03:09:383:0419,5
96BAĆMAGA Wojciech 7PRUSZKÓWM Open87M 8700:00:0008:39:23.0008:39:23.00+03:15:483:0619,3
97KIEDROWSKI Artur 51BRWILNO DOLNEM Open88M 8800:00:0008:41:19.0008:41:19.00+03:17:443:0719,2
98JANISZEWSKI Rafał 46TRUSKAWM Open89M 8900:00:0008:50:26.0008:50:26.00+03:26:513:1018,9
99ADAMCZYK Marek 1RAWA MAZOWIECKAM Open90M 9000:00:0008:52:30.0008:52:30.00+03:28:553:1118,8
100WOJCIECHOWSKI Tomasz 114FART STRONGWARSZAWAM Open91M 9100:00:0008:57:51.0008:57:51.00+03:34:163:1318,6
101GAWORSKI Paweł 34SULEJÓWEKM Open92M 9200:00:0009:55:12.0009:55:12.00+04:31:373:3316,8
102KOZERSKI Rafał 57BIO (BORN IN OLSZTYN) TEAMWARSZAWAM Open93M 9300:00:0010:52:52.0010:52:52.00+05:29:173:5415,3
103MAJCHER Piotr 69BIO TEAM (BORN IN OLSZTYN)WARSZAWAM Open94M 9400:00:0010:52:56.0010:52:56.00+05:29:213:5415,3
Znaleziono 103 wynik(ów)